createdAt,value
2017-11-26T00:00:19.551Z,3.8
2017-11-26T00:01:21.081Z,3.8
2017-11-26T00:02:22.633Z,3.8
2017-11-26T00:03:24.128Z,3.9
2017-11-26T00:04:25.631Z,3.8
2017-11-26T00:05:27.172Z,3.8
2017-11-26T00:06:28.654Z,3.8
2017-11-26T00:07:31.491Z,3.8
2017-11-26T00:08:32.971Z,3.8
2017-11-26T00:09:34.445Z,3.9
2017-11-26T00:10:36.002Z,3.8
2017-11-26T00:11:37.572Z,3.9
2017-11-26T00:12:39.027Z,3.9
2017-11-26T00:13:40.506Z,3.8
2017-11-26T00:14:42.116Z,3.9
2017-11-26T00:15:43.595Z,3.8
2017-11-26T00:16:45.211Z,3.8
2017-11-26T00:17:46.612Z,3.8
2017-11-26T00:18:48.119Z,3.6
2017-11-26T00:19:49.666Z,3.5
2017-11-26T00:20:51.131Z,3.5
2017-11-26T00:21:52.612Z,3.5
2017-11-26T00:22:54.049Z,3.4
2017-11-26T00:23:55.581Z,3.3
2017-11-26T00:24:57.204Z,3.2
2017-11-26T00:25:58.636Z,3.2
2017-11-26T00:27:00.130Z,3.2
2017-11-26T00:28:01.577Z,3.3
2017-11-26T00:29:03.010Z,3.2
2017-11-26T00:30:04.414Z,3.2
2017-11-26T00:31:05.817Z,3.2
2017-11-26T00:32:07.244Z,3.2
2017-11-26T00:33:08.724Z,3.2
2017-11-26T00:34:10.202Z,3.2
2017-11-26T00:35:11.654Z,3.2
2017-11-26T00:36:13.073Z,3.2
2017-11-26T00:37:14.532Z,3.3
2017-11-26T00:38:15.977Z,3.1
2017-11-26T00:39:17.414Z,3.1
2017-11-26T00:40:18.881Z,3.1
2017-11-26T00:41:20.326Z,3.1
2017-11-26T00:42:21.883Z,3.1
2017-11-26T00:43:23.298Z,3.0
2017-11-26T00:44:24.777Z,3.1
2017-11-26T00:45:26.170Z,3.1
2017-11-26T00:46:27.593Z,3.1
2017-11-26T00:47:29.042Z,3.1
2017-11-26T00:48:30.466Z,3.1
2017-11-26T00:49:31.934Z,3.1
2017-11-26T00:50:33.398Z,3.1
2017-11-26T00:51:34.896Z,3.1
2017-11-26T00:52:36.371Z,3.1
2017-11-26T00:53:37.830Z,3.0
2017-11-26T00:54:39.270Z,3.1
2017-11-26T00:55:40.730Z,3.1
2017-11-26T00:56:42.177Z,3.0
2017-11-26T00:57:43.597Z,3.0
2017-11-26T00:58:45.024Z,3.1
2017-11-26T00:59:46.491Z,2.9
2017-11-26T01:00:47.975Z,3.0
2017-11-26T01:01:49.418Z,3.0
2017-11-26T01:02:51.045Z,3.0
2017-11-26T01:03:52.505Z,3.0
2017-11-26T01:04:53.980Z,3.1
2017-11-26T01:05:55.441Z,3.2
2017-11-26T01:06:56.876Z,3.2
2017-11-26T01:07:58.307Z,3.1
2017-11-26T01:08:59.738Z,3.2
2017-11-26T01:10:01.189Z,3.2
2017-11-26T01:11:02.661Z,3.2
2017-11-26T01:12:04.101Z,3.1
2017-11-26T01:13:05.579Z,3.1
2017-11-26T01:14:07.069Z,3.2
2017-11-26T01:15:08.536Z,3.1
2017-11-26T01:16:09.966Z,3.1
2017-11-26T01:17:11.416Z,3.1
2017-11-26T01:18:12.832Z,3.1
2017-11-26T01:19:14.288Z,3.1
2017-11-26T01:20:15.711Z,3.3
2017-11-26T01:21:17.187Z,3.2
2017-11-26T01:22:18.634Z,3.1
2017-11-26T01:23:20.128Z,3.2
2017-11-26T01:24:21.564Z,3.2
2017-11-26T01:25:23.052Z,3.2
2017-11-26T01:26:24.525Z,3.3
2017-11-26T01:27:25.982Z,3.4
2017-11-26T01:28:27.413Z,3.4
2017-11-26T01:29:28.872Z,3.5
2017-11-26T01:30:30.307Z,3.6
2017-11-26T01:31:31.793Z,3.5
2017-11-26T01:32:33.326Z,3.6
2017-11-26T01:33:34.785Z,3.6
2017-11-26T01:34:36.247Z,3.7
2017-11-26T01:35:37.680Z,3.7
2017-11-26T01:36:39.125Z,3.8
2017-11-26T01:37:40.574Z,3.8
2017-11-26T01:38:42.087Z,3.8
2017-11-26T01:39:43.709Z,3.8
2017-11-26T01:40:45.198Z,3.8
2017-11-26T01:41:46.673Z,3.8
2017-11-26T01:42:48.135Z,3.8
2017-11-26T01:43:49.605Z,4.0
2017-11-26T01:44:51.036Z,3.9
2017-11-26T01:45:52.480Z,3.9
2017-11-26T01:46:53.921Z,3.9
2017-11-26T01:47:55.382Z,4.0
2017-11-26T01:48:56.818Z,4.0
2017-11-26T01:49:58.273Z,4.0
2017-11-26T01:50:59.808Z,4.0
2017-11-26T01:52:01.247Z,4.0
2017-11-26T01:53:02.703Z,4.0
2017-11-26T01:54:04.188Z,4.0
2017-11-26T01:55:05.627Z,4.0
2017-11-26T01:56:07.092Z,4.0
2017-11-26T01:57:08.511Z,4.0
2017-11-26T01:58:09.944Z,3.9
2017-11-26T01:59:11.408Z,4.0
2017-11-26T02:00:12.889Z,3.9
2017-11-26T02:01:14.344Z,3.8
2017-11-26T02:02:15.805Z,3.8
2017-11-26T02:03:17.222Z,3.9
2017-11-26T02:04:18.660Z,3.9
2017-11-26T02:05:20.091Z,3.8
2017-11-26T02:06:21.563Z,3.8
2017-11-26T02:07:23.082Z,3.8
2017-11-26T02:08:24.516Z,3.8
2017-11-26T02:09:25.940Z,3.8
2017-11-26T02:10:27.377Z,3.8
2017-11-26T02:11:28.849Z,3.9
2017-11-26T02:12:30.324Z,3.9
2017-11-26T02:13:31.776Z,3.9
2017-11-26T02:14:33.212Z,3.9
2017-11-26T02:15:34.672Z,3.9
2017-11-26T02:16:36.115Z,3.8
2017-11-26T02:17:37.569Z,3.8
2017-11-26T02:18:39.011Z,3.8
2017-11-26T02:19:40.480Z,3.8
2017-11-26T02:20:41.945Z,3.8
2017-11-26T02:21:43.417Z,3.8
2017-11-26T02:22:44.871Z,3.8
2017-11-26T02:23:46.309Z,3.9
2017-11-26T02:24:47.782Z,3.8
2017-11-26T02:25:49.218Z,3.9
2017-11-26T02:26:50.699Z,3.8
2017-11-26T02:27:52.229Z,3.9
2017-11-26T02:28:53.725Z,3.9
2017-11-26T02:29:55.230Z,3.8
2017-11-26T02:30:56.727Z,3.8
2017-11-26T02:31:58.140Z,3.9
2017-11-26T02:32:59.627Z,3.9
2017-11-26T02:34:01.077Z,3.9
2017-11-26T02:35:02.516Z,3.8
2017-11-26T02:36:03.990Z,3.8
2017-11-26T02:37:05.432Z,3.8
2017-11-26T02:38:06.884Z,3.9
2017-11-26T02:39:08.301Z,3.8
2017-11-26T02:40:09.740Z,3.9
2017-11-26T02:41:11.196Z,3.8
2017-11-26T02:42:12.661Z,3.8
2017-11-26T02:43:14.849Z,3.8
2017-11-26T02:44:16.322Z,3.8
2017-11-26T02:45:17.717Z,3.8
2017-11-26T02:46:19.213Z,3.8
2017-11-26T02:47:20.665Z,3.7
2017-11-26T02:48:22.116Z,3.7
2017-11-26T02:49:23.552Z,3.7
2017-11-26T02:50:25.017Z,3.6
2017-11-26T02:51:26.434Z,3.6
2017-11-26T02:52:27.933Z,3.5
2017-11-26T02:53:29.382Z,3.6
2017-11-26T02:54:30.801Z,3.5
2017-11-26T02:55:32.235Z,3.5
2017-11-26T02:56:33.683Z,3.5
2017-11-26T02:57:35.133Z,3.5
2017-11-26T02:58:36.574Z,3.5
2017-11-26T02:59:38.103Z,3.4
2017-11-26T03:00:39.495Z,3.4
2017-11-26T03:01:40.952Z,3.3
2017-11-26T03:02:42.383Z,3.3
2017-11-26T03:03:43.852Z,3.3
2017-11-26T03:04:45.305Z,3.2
2017-11-26T03:05:46.770Z,3.3
2017-11-26T03:06:48.194Z,3.3
2017-11-26T03:07:49.647Z,3.3
2017-11-26T03:08:51.116Z,3.4
2017-11-26T03:09:52.550Z,3.4
2017-11-26T03:10:53.967Z,3.3
2017-11-26T03:11:55.465Z,3.4
2017-11-26T03:12:56.976Z,3.4
2017-11-26T03:13:58.412Z,3.5
2017-11-26T03:14:59.854Z,3.4
2017-11-26T03:16:01.303Z,3.4
2017-11-26T03:17:02.752Z,3.4
2017-11-26T03:18:04.251Z,3.3
2017-11-26T03:19:05.673Z,3.4
2017-11-26T03:20:07.145Z,3.3
2017-11-26T03:21:08.563Z,3.3
2017-11-26T03:22:10.013Z,3.3
2017-11-26T03:23:11.471Z,3.2
2017-11-26T03:24:12.975Z,3.2
2017-11-26T03:25:14.387Z,3.3
2017-11-26T03:26:15.812Z,3.2
2017-11-26T03:27:17.280Z,3.2
2017-11-26T03:28:18.718Z,3.1
2017-11-26T03:29:20.186Z,3.1
2017-11-26T03:30:21.650Z,3.1
2017-11-26T03:31:23.078Z,3.1
2017-11-26T03:32:24.484Z,3.2
2017-11-26T03:33:25.939Z,3.2
2017-11-26T03:34:27.378Z,3.1
2017-11-26T03:35:28.864Z,3.2
2017-11-26T03:36:30.299Z,3.2
2017-11-26T03:37:31.782Z,3.2
2017-11-26T03:38:33.256Z,3.2
2017-11-26T03:39:34.759Z,3.3
2017-11-26T03:40:36.233Z,3.3
2017-11-26T03:41:37.693Z,3.3
2017-11-26T03:42:39.147Z,3.2
2017-11-26T03:43:40.640Z,3.3
2017-11-26T03:44:42.142Z,3.2
2017-11-26T03:45:43.592Z,3.1
2017-11-26T03:46:45.011Z,3.1
2017-11-26T03:47:46.481Z,3.1
2017-11-26T03:48:47.982Z,3.1
2017-11-26T03:49:49.556Z,3.1
2017-11-26T03:50:51.036Z,3.0
2017-11-26T03:51:52.471Z,3.0
2017-11-26T03:52:53.923Z,3.1
2017-11-26T03:53:55.414Z,3.0
2017-11-26T03:54:56.964Z,3.0
2017-11-26T03:55:58.440Z,2.9
2017-11-26T03:56:59.875Z,2.9
2017-11-26T03:58:01.301Z,3.0
2017-11-26T03:59:02.732Z,2.9
2017-11-26T04:00:04.215Z,2.9
2017-11-26T04:01:05.655Z,3.1
2017-11-26T04:02:07.088Z,3.0
2017-11-26T04:03:08.498Z,2.9
2017-11-26T04:04:09.959Z,2.9
2017-11-26T04:05:11.399Z,2.9
2017-11-26T04:06:12.853Z,2.9
2017-11-26T04:07:14.332Z,2.8
2017-11-26T04:08:15.764Z,2.8
2017-11-26T04:09:17.184Z,2.9
2017-11-26T04:10:18.663Z,2.9
2017-11-26T04:11:20.073Z,2.8
2017-11-26T04:12:21.549Z,2.9
2017-11-26T04:13:22.973Z,2.9
2017-11-26T04:14:24.427Z,2.9
2017-11-26T04:15:25.839Z,2.9
2017-11-26T04:16:27.287Z,2.9
2017-11-26T04:17:28.722Z,2.9
2017-11-26T04:18:30.199Z,2.8
2017-11-26T04:19:31.682Z,2.9
2017-11-26T04:20:33.119Z,2.8
2017-11-26T04:21:34.567Z,2.7
2017-11-26T04:22:36.043Z,2.9
2017-11-26T04:23:37.533Z,2.8
2017-11-26T04:24:38.965Z,2.8
2017-11-26T04:25:40.387Z,2.9
2017-11-26T04:26:41.824Z,2.9
2017-11-26T04:27:43.270Z,2.9
2017-11-26T04:28:44.711Z,2.9
2017-11-26T04:29:46.198Z,2.9
2017-11-26T04:30:47.650Z,2.9
2017-11-26T04:31:49.130Z,3.0
2017-11-26T04:32:50.551Z,3.0
2017-11-26T04:33:51.976Z,2.9
2017-11-26T04:34:53.481Z,3.1
2017-11-26T04:35:54.858Z,2.9
2017-11-26T04:36:56.341Z,2.9
2017-11-26T04:37:57.756Z,2.9
2017-11-26T04:38:59.236Z,3.0
2017-11-26T04:40:00.638Z,2.9
2017-11-26T04:41:02.095Z,3.0
2017-11-26T04:42:03.529Z,3.0
2017-11-26T04:43:05.004Z,3.1
2017-11-26T04:44:06.420Z,3.0
2017-11-26T04:45:07.998Z,3.0
2017-11-26T04:46:09.454Z,3.0
2017-11-26T04:47:10.928Z,3.0
2017-11-26T04:48:12.391Z,3.1
2017-11-26T04:49:13.866Z,3.0
2017-11-26T04:50:15.383Z,3.0
2017-11-26T04:51:16.847Z,2.9
2017-11-26T04:52:18.318Z,2.9
2017-11-26T04:53:19.751Z,2.7
2017-11-26T04:54:21.190Z,2.9
2017-11-26T04:55:22.627Z,2.8
2017-11-26T04:56:24.155Z,2.7
2017-11-26T04:57:25.578Z,2.7
2017-11-26T04:58:26.985Z,2.7
2017-11-26T04:59:28.462Z,2.6
2017-11-26T05:00:29.951Z,2.6
2017-11-26T05:01:31.445Z,2.6
2017-11-26T05:02:32.950Z,2.6
2017-11-26T05:03:34.454Z,2.7
2017-11-26T05:04:35.880Z,2.8
2017-11-26T05:05:37.343Z,2.7
2017-11-26T05:06:38.809Z,2.8
2017-11-26T05:07:40.258Z,2.9
2017-11-26T05:08:41.712Z,2.8
2017-11-26T05:09:43.130Z,2.8
2017-11-26T05:10:44.589Z,2.9
2017-11-26T05:11:46.088Z,2.9
2017-11-26T05:12:47.554Z,3.0
2017-11-26T05:13:49.016Z,3.0
2017-11-26T05:14:50.496Z,3.0
2017-11-26T05:15:51.897Z,3.1
2017-11-26T05:16:53.377Z,3.1
2017-11-26T05:17:54.828Z,3.1
2017-11-26T05:18:56.253Z,3.1
2017-11-26T05:19:57.728Z,3.1
2017-11-26T05:20:59.173Z,3.1
2017-11-26T05:22:00.649Z,3.1
2017-11-26T05:23:02.103Z,3.2
2017-11-26T05:24:03.522Z,3.1
2017-11-26T05:25:04.946Z,3.2
2017-11-26T05:26:06.430Z,3.2
2017-11-26T05:27:07.881Z,3.2
2017-11-26T05:28:09.312Z,3.2
2017-11-26T05:29:10.769Z,3.2
2017-11-26T05:30:12.236Z,3.3
2017-11-26T05:31:13.722Z,3.3
2017-11-26T05:32:15.169Z,3.3
2017-11-26T05:33:16.625Z,3.3
2017-11-26T05:34:18.113Z,3.1
2017-11-26T05:35:19.536Z,3.3
2017-11-26T05:36:20.982Z,3.3
2017-11-26T05:37:22.424Z,3.2
2017-11-26T05:38:23.909Z,3.3
2017-11-26T05:39:25.357Z,3.2
2017-11-26T05:40:26.786Z,3.2
2017-11-26T05:41:28.177Z,3.2
2017-11-26T05:42:29.631Z,3.3
2017-11-26T05:43:31.070Z,3.3
2017-11-26T05:44:32.533Z,3.2
2017-11-26T05:45:33.999Z,3.4
2017-11-26T05:46:35.497Z,3.3
2017-11-26T05:47:36.902Z,3.4
2017-11-26T05:48:38.362Z,3.4
2017-11-26T05:49:39.818Z,3.4
2017-11-26T05:50:41.282Z,3.4
2017-11-26T05:51:42.756Z,3.4
2017-11-26T05:52:44.155Z,3.4
2017-11-26T05:53:45.624Z,3.4
2017-11-26T05:54:47.056Z,3.5
2017-11-26T05:55:48.496Z,3.4
2017-11-26T05:56:49.925Z,3.5
2017-11-26T05:57:51.364Z,3.5
2017-11-26T05:58:52.839Z,3.5
2017-11-26T05:59:54.297Z,3.5
2017-11-26T06:00:55.752Z,3.5
2017-11-26T06:01:57.231Z,3.5
2017-11-26T06:02:58.671Z,3.4
2017-11-26T06:04:00.147Z,3.4
2017-11-26T06:05:01.590Z,3.3
2017-11-26T06:06:03.041Z,3.4
2017-11-26T06:07:04.482Z,3.3
2017-11-26T06:08:06.000Z,3.3
2017-11-26T06:09:07.444Z,3.3
2017-11-26T06:10:08.903Z,3.3
2017-11-26T06:11:10.341Z,3.3
2017-11-26T06:12:11.798Z,3.3
2017-11-26T06:13:13.323Z,3.3
2017-11-26T06:14:14.738Z,3.3
2017-11-26T06:15:16.192Z,3.3
2017-11-26T06:16:17.651Z,3.3
2017-11-26T06:17:19.120Z,3.3
2017-11-26T06:18:20.604Z,3.3
2017-11-26T06:19:22.094Z,3.4
2017-11-26T06:20:23.532Z,3.3
2017-11-26T06:21:25.040Z,3.3
2017-11-26T06:22:26.548Z,3.4
2017-11-26T06:23:28.037Z,3.4
2017-11-26T06:24:29.493Z,3.4
2017-11-26T06:25:30.925Z,3.4
2017-11-26T06:26:32.376Z,3.4
2017-11-26T06:27:33.824Z,3.4
2017-11-26T06:28:35.317Z,3.4
2017-11-26T06:29:36.827Z,3.3
2017-11-26T06:30:38.240Z,3.3
2017-11-26T06:31:39.685Z,3.3
2017-11-26T06:32:41.157Z,3.4
2017-11-26T06:33:42.604Z,3.3
2017-11-26T06:34:44.010Z,3.3
2017-11-26T06:35:45.464Z,3.4
2017-11-26T06:36:46.944Z,3.4
2017-11-26T06:37:48.359Z,3.4
2017-11-26T06:38:49.822Z,3.4
2017-11-26T06:39:51.264Z,3.5
2017-11-26T06:40:52.756Z,3.5
2017-11-26T06:41:54.297Z,3.5
2017-11-26T06:42:55.763Z,3.5
2017-11-26T06:43:57.249Z,3.5
2017-11-26T06:44:58.717Z,3.4
2017-11-26T06:46:00.179Z,3.4
2017-11-26T06:47:01.703Z,3.5
2017-11-26T06:48:03.124Z,3.4
2017-11-26T06:49:04.572Z,3.4
2017-11-26T06:50:05.971Z,3.4
2017-11-26T06:51:07.469Z,3.4
2017-11-26T06:52:08.914Z,3.4
2017-11-26T06:53:10.343Z,3.4
2017-11-26T06:54:11.782Z,3.4
2017-11-26T06:55:13.265Z,3.4
2017-11-26T06:56:14.756Z,3.4
2017-11-26T06:57:16.200Z,3.4
2017-11-26T06:58:17.617Z,3.4
2017-11-26T06:59:19.067Z,3.3
2017-11-26T07:00:20.535Z,3.2
2017-11-26T07:01:21.981Z,3.3
2017-11-26T07:02:23.487Z,3.2
2017-11-26T07:03:24.929Z,3.2
2017-11-26T07:04:26.395Z,3.2
2017-11-26T07:05:27.884Z,3.3
2017-11-26T07:06:29.326Z,3.2
2017-11-26T07:07:30.765Z,3.2
2017-11-26T07:08:32.225Z,3.2
2017-11-26T07:09:33.645Z,3.3
2017-11-26T07:10:35.105Z,3.3
2017-11-26T07:11:36.549Z,3.3
2017-11-26T07:12:37.975Z,3.2
2017-11-26T07:13:39.427Z,3.2
2017-11-26T07:14:40.857Z,3.3
2017-11-26T07:15:42.333Z,3.3
2017-11-26T07:16:43.780Z,3.2
2017-11-26T07:17:45.253Z,3.3
2017-11-26T07:18:46.683Z,3.3
2017-11-26T07:19:48.121Z,3.4
2017-11-26T07:20:49.578Z,3.3
2017-11-26T07:21:51.062Z,3.3
2017-11-26T07:22:52.532Z,3.3
2017-11-26T07:23:53.978Z,3.3
2017-11-26T07:24:55.527Z,3.3
2017-11-26T07:25:56.959Z,3.3
2017-11-26T07:26:58.432Z,3.3
2017-11-26T07:27:59.900Z,3.3
2017-11-26T07:29:01.428Z,3.3
2017-11-26T07:30:02.988Z,3.3
2017-11-26T07:31:04.470Z,3.3
2017-11-26T07:32:05.957Z,3.2
2017-11-26T07:33:07.406Z,3.2
2017-11-26T07:34:08.921Z,3.3
2017-11-26T07:35:10.361Z,3.4
2017-11-26T07:36:11.865Z,3.4
2017-11-26T07:37:14.203Z,3.4
2017-11-26T07:38:14.687Z,3.4
2017-11-26T07:39:16.178Z,3.5
2017-11-26T07:40:17.679Z,3.6
2017-11-26T07:41:19.142Z,3.5
2017-11-26T07:42:20.599Z,3.6
2017-11-26T07:43:22.039Z,3.5
2017-11-26T07:44:23.484Z,3.5
2017-11-26T07:45:24.939Z,3.6
2017-11-26T07:46:26.435Z,3.6
2017-11-26T07:47:27.925Z,3.7
2017-11-26T07:48:29.379Z,3.7
2017-11-26T07:49:30.994Z,3.7
2017-11-26T07:50:32.523Z,3.8
2017-11-26T07:51:34.030Z,3.9
2017-11-26T07:52:35.651Z,3.8
2017-11-26T07:53:37.253Z,3.8
2017-11-26T07:54:38.830Z,3.8
2017-11-26T07:55:40.288Z,3.9
2017-11-26T07:56:41.755Z,4.0
2017-11-26T07:57:43.319Z,4.1
2017-11-26T07:58:44.922Z,4.1
2017-11-26T07:59:46.467Z,4.1
2017-11-26T08:00:47.949Z,4.2
2017-11-26T08:01:49.572Z,4.2
2017-11-26T08:02:51.099Z,4.2
2017-11-26T08:03:52.830Z,4.2
2017-11-26T08:04:54.673Z,4.3
2017-11-26T08:07:40.410Z,4.6
2017-11-26T08:08:43.310Z,4.6
2017-11-26T08:09:47.894Z,4.6
2017-11-26T08:10:49.536Z,4.5
2017-11-26T08:14:30.195Z,4.6
2017-11-26T08:15:31.789Z,4.5
2017-11-26T08:16:33.196Z,4.6
2017-11-26T08:17:34.593Z,4.5
2017-11-26T08:18:36.630Z,4.6
2017-11-26T08:19:38.241Z,4.7
2017-11-26T08:20:40.188Z,4.7
2017-11-26T08:21:41.655Z,4.7
2017-11-26T08:22:43.124Z,4.6
2017-11-26T08:23:45.180Z,4.7
2017-11-26T08:24:46.619Z,4.7
2017-11-26T08:25:48.080Z,4.8
2017-11-26T08:26:49.715Z,4.8
2017-11-26T08:27:51.408Z,4.9
2017-11-26T08:28:53.039Z,4.9
2017-11-26T08:29:54.588Z,5.0
2017-11-26T08:30:57.203Z,5.1
2017-11-26T08:31:59.311Z,5.1
2017-11-26T08:33:02.696Z,5.1
2017-11-26T08:34:04.081Z,5.1
2017-11-26T08:35:05.556Z,5.1
2017-11-26T08:36:06.981Z,5.0
2017-11-26T08:37:08.452Z,5.2
2017-11-26T08:38:10.897Z,5.2
2017-11-26T08:39:11.467Z,5.2
2017-11-26T08:40:12.857Z,5.2
2017-11-26T08:41:14.294Z,5.0
2017-11-26T08:42:15.725Z,5.2
2017-11-26T08:43:17.144Z,5.2
2017-11-26T08:44:18.561Z,5.1
2017-11-26T08:45:19.951Z,5.1
2017-11-26T08:46:21.390Z,5.1
2017-11-26T08:47:22.792Z,5.0
2017-11-26T08:48:24.403Z,5.1
2017-11-26T08:49:25.831Z,5.1
2017-11-26T08:50:27.323Z,5.0
2017-11-26T08:51:28.798Z,5.0
2017-11-26T08:52:30.291Z,4.9
2017-11-26T08:53:31.772Z,4.9
2017-11-26T08:54:33.197Z,4.9
2017-11-26T08:55:34.686Z,4.9
2017-11-26T08:56:36.144Z,5.0
2017-11-26T08:57:37.757Z,5.0
2017-11-26T08:58:39.280Z,4.9
2017-11-26T08:59:40.774Z,5.0
2017-11-26T09:00:42.365Z,5.0
2017-11-26T09:01:44.002Z,5.0
2017-11-26T09:02:45.459Z,4.9
2017-11-26T09:03:46.909Z,5.0
2017-11-26T09:04:48.397Z,4.9
2017-11-26T09:05:49.869Z,4.9
2017-11-26T09:06:51.286Z,4.9
2017-11-26T09:07:52.773Z,4.9
2017-11-26T09:08:54.216Z,4.9
2017-11-26T09:09:55.696Z,5.0
2017-11-26T09:10:57.173Z,5.0
2017-11-26T09:11:58.622Z,5.2
2017-11-26T09:13:00.103Z,5.2
2017-11-26T09:14:01.614Z,5.2
2017-11-26T09:15:03.085Z,5.3
2017-11-26T09:16:04.542Z,5.4
2017-11-26T09:17:06.022Z,5.3
2017-11-26T09:18:07.515Z,5.4
2017-11-26T09:19:08.995Z,5.5
2017-11-26T09:20:10.420Z,5.4
2017-11-26T09:21:11.864Z,5.5
2017-11-26T09:22:13.599Z,5.5
2017-11-26T09:23:15.083Z,5.6
2017-11-26T09:24:16.607Z,5.6
2017-11-26T09:25:18.092Z,5.6
2017-11-26T09:26:19.547Z,5.5
2017-11-26T09:27:21.121Z,5.7
2017-11-26T09:28:22.690Z,5.6
2017-11-26T09:29:24.759Z,5.6
2017-11-26T09:30:26.208Z,5.4
2017-11-26T09:31:27.663Z,5.6
2017-11-26T09:32:29.197Z,5.4
2017-11-26T09:33:30.704Z,5.3
2017-11-26T09:34:32.145Z,5.3
2017-11-26T09:35:33.562Z,5.3
2017-11-26T09:36:35.095Z,5.4
2017-11-26T09:37:36.532Z,5.5
2017-11-26T09:38:38.103Z,5.4
2017-11-26T09:39:39.581Z,5.6
2017-11-26T09:40:41.020Z,5.7
2017-11-26T09:41:42.460Z,5.7
2017-11-26T09:42:43.942Z,5.8
2017-11-26T09:43:45.428Z,5.8
2017-11-26T09:44:46.990Z,5.7
2017-11-26T09:45:48.465Z,5.7
2017-11-26T09:46:50.069Z,5.8
2017-11-26T09:47:51.544Z,6.0
2017-11-26T09:48:53.057Z,6.1
2017-11-26T09:49:54.574Z,6.0
2017-11-26T09:50:56.147Z,5.9
2017-11-26T09:51:57.631Z,5.8
2017-11-26T09:52:59.121Z,5.9
2017-11-26T09:54:00.904Z,6.0
2017-11-26T09:55:02.356Z,6.1
2017-11-26T09:56:03.829Z,6.4
2017-11-26T09:57:05.450Z,6.4
2017-11-26T09:58:06.977Z,6.4
2017-11-26T09:59:08.607Z,6.8
2017-11-26T10:00:10.089Z,7.0
2017-11-26T10:01:11.643Z,7.0
2017-11-26T10:02:13.135Z,7.3
2017-11-26T10:03:14.635Z,7.4
2017-11-26T10:04:16.107Z,7.6
2017-11-26T10:05:17.612Z,7.9
2017-11-26T10:06:19.142Z,8.0
2017-11-26T10:07:20.685Z,8.2
2017-11-26T10:08:22.315Z,8.4
2017-11-26T10:09:23.852Z,8.7
2017-11-26T10:10:25.335Z,9.2
2017-11-26T10:11:26.764Z,9.7
2017-11-26T10:12:28.218Z,10.4
2017-11-26T10:13:29.764Z,11.0
2017-11-26T10:14:31.255Z,11.8
2017-11-26T10:15:33.300Z,12.1
2017-11-26T10:16:34.733Z,12.3
2017-11-26T10:17:36.248Z,12.9
2017-11-26T10:18:37.744Z,12.6
2017-11-26T10:19:39.644Z,13.0
2017-11-26T10:20:41.184Z,13.0
2017-11-26T10:21:42.662Z,13.0
2017-11-26T10:22:44.136Z,12.8
2017-11-26T10:23:45.598Z,13.0
2017-11-26T10:24:47.750Z,13.5
2017-11-26T10:25:49.204Z,13.0
2017-11-26T10:26:50.694Z,12.3
2017-11-26T10:27:52.141Z,10.7
2017-11-26T10:28:53.800Z,9.5
2017-11-26T10:29:55.308Z,8.8
2017-11-26T10:30:56.837Z,8.3
2017-11-26T10:31:58.636Z,8.0
2017-11-26T10:33:00.186Z,7.8
2017-11-26T10:34:01.790Z,7.5
2017-11-26T10:35:03.347Z,7.4
2017-11-26T10:36:04.768Z,7.4
2017-11-26T10:37:06.396Z,7.5
2017-11-26T10:38:07.863Z,7.7
2017-11-26T10:39:11.521Z,7.9
2017-11-26T10:40:13.011Z,7.9
2017-11-26T10:41:14.503Z,7.9
2017-11-26T10:42:16.028Z,7.9
2017-11-26T10:43:17.722Z,7.8
2017-11-26T10:44:19.273Z,7.8
2017-11-26T10:45:20.793Z,7.9
2017-11-26T10:46:22.262Z,7.8
2017-11-26T10:47:23.698Z,7.7
2017-11-26T10:48:25.154Z,7.8
2017-11-26T10:49:27.052Z,7.6
2017-11-26T10:50:28.619Z,7.7
2017-11-26T10:51:30.095Z,7.6
2017-11-26T10:52:32.011Z,7.7
2017-11-26T10:53:34.092Z,7.5
2017-11-26T10:54:35.452Z,7.4
2017-11-26T10:56:50.572Z,7.4
2017-11-26T10:57:53.596Z,7.1
2017-11-26T10:58:55.420Z,7.0
2017-11-26T10:59:59.306Z,6.9
2017-11-26T11:02:10.002Z,7.0
2017-11-26T11:03:11.992Z,7.0
2017-11-26T11:04:13.501Z,7.1
2017-11-26T11:05:18.844Z,7.1
2017-11-26T11:06:19.580Z,7.1
2017-11-26T11:07:21.119Z,7.2
2017-11-26T11:08:22.711Z,7.1
2017-11-26T11:09:24.173Z,7.0
2017-11-26T11:10:25.712Z,7.0
2017-11-26T11:11:27.231Z,7.1
2017-11-26T11:12:28.671Z,7.3
2017-11-26T11:13:30.111Z,7.5
2017-11-26T11:14:31.614Z,7.8
2017-11-26T11:16:31.893Z,7.9
2017-11-26T11:20:12.122Z,7.7
2017-11-26T11:21:44.765Z,7.6
2017-11-26T11:23:10.577Z,7.6
2017-11-26T11:24:32.638Z,7.7
2017-11-26T11:25:34.350Z,7.8
2017-11-26T11:26:35.861Z,7.8
2017-11-26T11:27:37.331Z,7.6
2017-11-26T11:28:38.798Z,7.6
2017-11-26T11:29:40.351Z,7.5
2017-11-26T11:30:41.858Z,7.5
2017-11-26T11:31:43.330Z,7.4
2017-11-26T11:32:44.804Z,7.1
2017-11-26T11:33:46.384Z,7.2
2017-11-26T11:34:47.813Z,7.2
2017-11-26T11:35:49.302Z,7.1
2017-11-26T11:36:50.770Z,7.1
2017-11-26T11:37:52.227Z,7.1
2017-11-26T11:38:53.688Z,7.1
2017-11-26T11:39:55.169Z,7.0
2017-11-26T11:40:57.082Z,7.1
2017-11-26T11:41:59.033Z,7.1
2017-11-26T11:43:00.536Z,7.2
2017-11-26T11:44:01.953Z,7.1
2017-11-26T11:45:03.476Z,7.2
2017-11-26T11:46:05.038Z,7.2
2017-11-26T11:47:06.502Z,7.2
2017-11-26T11:48:07.987Z,7.2
2017-11-26T11:49:09.468Z,7.1
2017-11-26T11:50:11.168Z,7.1
2017-11-26T11:51:12.686Z,7.1
2017-11-26T11:52:14.232Z,7.2
2017-11-26T11:53:15.720Z,7.2
2017-11-26T11:54:17.429Z,7.1
2017-11-26T11:55:20.830Z,7.3
2017-11-26T11:56:22.368Z,7.4
2017-11-26T11:57:23.853Z,7.4
2017-11-26T11:58:25.422Z,7.6
2017-11-26T11:59:26.936Z,7.5
2017-11-26T12:00:28.387Z,7.5
2017-11-26T12:01:29.828Z,7.5
2017-11-26T12:02:31.496Z,7.5
2017-11-26T12:03:33.008Z,7.5
2017-11-26T12:04:34.566Z,7.4
2017-11-26T12:05:36.073Z,7.4
2017-11-26T12:06:37.582Z,7.4
2017-11-26T12:07:39.087Z,7.6
2017-11-26T12:08:40.562Z,7.5
2017-11-26T12:09:42.465Z,7.6
2017-11-26T12:10:44.550Z,7.5
2017-11-26T12:11:46.082Z,7.3
2017-11-26T12:12:47.671Z,7.2
2017-11-26T12:13:49.235Z,7.2
2017-11-26T12:14:50.649Z,7.2
2017-11-26T12:15:52.115Z,7.1
2017-11-26T12:16:53.632Z,7.2
2017-11-26T12:17:55.109Z,7.1
2017-11-26T12:18:56.572Z,7.0
2017-11-26T12:19:58.042Z,7.2
2017-11-26T12:20:59.509Z,7.2
2017-11-26T12:22:01.017Z,7.3
2017-11-26T12:23:02.529Z,7.3
2017-11-26T12:24:03.991Z,7.4
2017-11-26T12:25:05.458Z,7.5
2017-11-26T12:26:07.010Z,7.2
2017-11-26T12:27:08.464Z,7.2
2017-11-26T12:28:09.976Z,7.0
2017-11-26T12:29:11.574Z,7.1
2017-11-26T12:30:13.022Z,7.0
2017-11-26T12:31:14.486Z,7.0
2017-11-26T12:32:15.980Z,7.0
2017-11-26T12:33:17.446Z,6.9
2017-11-26T12:34:18.905Z,6.8
2017-11-26T12:35:20.348Z,6.7
2017-11-26T12:36:21.846Z,6.6
2017-11-26T12:37:23.302Z,6.7
2017-11-26T12:38:24.897Z,6.8
2017-11-26T12:39:26.351Z,6.8
2017-11-26T12:40:27.848Z,6.8
2017-11-26T12:41:29.325Z,6.9
2017-11-26T12:42:30.798Z,6.8
2017-11-26T12:43:32.456Z,6.7
2017-11-26T12:44:33.987Z,6.8
2017-11-26T12:45:35.444Z,6.7
2017-11-26T12:46:36.885Z,6.6
2017-11-26T12:47:38.377Z,6.6
2017-11-26T12:48:39.846Z,6.7
2017-11-26T12:49:41.340Z,6.6
2017-11-26T12:50:42.818Z,6.7
2017-11-26T12:51:44.369Z,6.8
2017-11-26T12:52:46.030Z,6.9
2017-11-26T12:53:47.533Z,6.8
2017-11-26T12:54:49.134Z,6.9
2017-11-26T12:55:50.663Z,6.9
2017-11-26T12:56:52.250Z,6.9
2017-11-26T12:57:53.845Z,6.8
2017-11-26T12:58:55.557Z,6.7
2017-11-26T12:59:57.072Z,6.6
2017-11-26T13:00:58.683Z,6.5
2017-11-26T13:02:00.301Z,6.6
2017-11-26T13:03:01.835Z,6.6
2017-11-26T13:04:03.390Z,6.7
2017-11-26T13:05:05.018Z,6.6
2017-11-26T13:06:06.555Z,6.6
2017-11-26T13:07:08.184Z,6.5
2017-11-26T13:08:09.753Z,6.5
2017-11-26T13:09:11.281Z,6.4
2017-11-26T13:10:12.804Z,6.4
2017-11-26T13:11:14.382Z,6.4
2017-11-26T13:12:15.873Z,6.4
2017-11-26T13:13:17.335Z,6.3
2017-11-26T13:14:18.859Z,6.4
2017-11-26T13:15:20.534Z,6.4
2017-11-26T13:16:22.118Z,6.4
2017-11-26T13:17:23.566Z,6.3
2017-11-26T13:18:25.100Z,6.2
2017-11-26T13:19:26.589Z,6.2
2017-11-26T13:20:28.185Z,6.2
2017-11-26T13:21:29.808Z,6.2
2017-11-26T13:22:31.269Z,6.2
2017-11-26T13:23:32.738Z,6.1
2017-11-26T13:24:34.209Z,6.1
2017-11-26T13:25:35.817Z,6.1
2017-11-26T13:26:37.162Z,6.1
2017-11-26T13:27:38.663Z,6.1
2017-11-26T13:28:40.181Z,6.1
2017-11-26T13:29:41.724Z,6.1
2017-11-26T13:30:43.471Z,6.0
2017-11-26T13:31:44.953Z,6.1
2017-11-26T13:32:46.472Z,6.1
2017-11-26T13:33:48.041Z,6.1
2017-11-26T13:34:49.548Z,6.0
2017-11-26T13:35:51.023Z,6.1
2017-11-26T13:36:52.536Z,6.1
2017-11-26T13:37:53.988Z,6.1
2017-11-26T13:38:55.444Z,6.1
2017-11-26T13:39:56.974Z,6.1
2017-11-26T13:40:58.450Z,6.1
2017-11-26T13:41:59.986Z,6.0
2017-11-26T13:43:01.493Z,6.0
2017-11-26T13:44:03.029Z,6.0
2017-11-26T13:45:04.582Z,6.0
2017-11-26T13:46:06.188Z,6.0
2017-11-26T13:47:07.668Z,6.1
2017-11-26T13:48:09.204Z,6.0
2017-11-26T13:49:11.050Z,6.0
2017-11-26T13:50:12.612Z,6.0
2017-11-26T13:51:14.108Z,6.0
2017-11-26T13:52:15.574Z,6.0
2017-11-26T13:53:17.574Z,6.0
2017-11-26T13:54:18.964Z,6.0
2017-11-26T13:55:20.505Z,6.0
2017-11-26T13:56:22.019Z,6.0
2017-11-26T13:57:23.488Z,6.0
2017-11-26T13:58:25.029Z,5.9
2017-11-26T13:59:26.544Z,6.0
2017-11-26T14:00:28.238Z,6.0
2017-11-26T14:01:29.766Z,5.9
2017-11-26T14:02:31.291Z,5.9
2017-11-26T14:03:32.789Z,5.9
2017-11-26T14:04:34.285Z,6.0
2017-11-26T14:05:36.798Z,6.0
2017-11-26T14:06:38.258Z,6.0
2017-11-26T14:07:39.765Z,6.0
2017-11-26T14:08:41.223Z,5.9
2017-11-26T14:09:42.702Z,6.0
2017-11-26T14:10:44.209Z,6.0
2017-11-26T14:11:45.751Z,6.0
2017-11-26T14:12:47.289Z,6.0
2017-11-26T14:13:48.834Z,6.0
2017-11-26T14:14:50.356Z,5.8
2017-11-26T14:15:51.841Z,5.9
2017-11-26T14:16:53.260Z,5.9
2017-11-26T14:17:54.718Z,5.9